createdAt,value
2019-03-09T00:00:48.405Z,1.80
2019-03-09T00:03:17.867Z,2.10
2019-03-09T00:05:48.075Z,2.10
2019-03-09T00:08:17.827Z,1.50
2019-03-09T00:10:47.324Z,1.70
2019-03-09T00:13:16.843Z,1.90
2019-03-09T00:15:46.483Z,1.87
2019-03-09T00:18:16.515Z,2.27
2019-03-09T00:20:46.044Z,1.73
2019-03-09T00:23:23.007Z,2.00
2019-03-09T00:26:26.639Z,1.70
2019-03-09T00:29:14.780Z,1.93
2019-03-09T00:32:02.941Z,1.40
2019-03-09T00:34:32.384Z,2.00
2019-03-09T00:37:01.576Z,1.60
2019-03-09T00:39:31.300Z,2.13
2019-03-09T00:42:01.257Z,2.03
2019-03-09T00:44:32.312Z,1.70
2019-03-09T00:47:02.419Z,1.60
2019-03-09T00:49:35.577Z,1.73
2019-03-09T00:52:06.725Z,1.67
2019-03-09T00:54:37.029Z,1.70
2019-03-09T00:57:07.329Z,1.50
2019-03-09T00:59:38.053Z,1.93
2019-03-09T01:02:07.875Z,1.80
2019-03-09T01:04:37.844Z,1.90
2019-03-09T01:07:08.346Z,1.70
2019-03-09T01:09:38.618Z,1.60
2019-03-09T01:12:07.783Z,2.07
2019-03-09T01:14:37.758Z,2.00
2019-03-09T01:17:07.205Z,1.60
2019-03-09T01:19:36.377Z,1.60
2019-03-09T01:22:06.700Z,2.00
2019-03-09T01:24:35.887Z,1.80
2019-03-09T01:27:06.193Z,1.47
2019-03-09T01:29:37.190Z,1.57
2019-03-09T01:32:06.661Z,1.73
2019-03-09T01:34:36.403Z,1.80
2019-03-09T01:37:06.665Z,1.97
2019-03-09T01:39:40.381Z,1.60
2019-03-09T01:42:09.833Z,2.00
2019-03-09T01:44:40.055Z,1.80
2019-03-09T01:47:09.784Z,1.90
2019-03-09T01:49:40.545Z,1.97
2019-03-09T01:52:09.706Z,2.40
2019-03-09T01:54:38.879Z,1.87
2019-03-09T01:57:09.085Z,2.20
2019-03-09T01:59:42.873Z,2.63
2019-03-09T02:02:12.843Z,1.70
2019-03-09T02:04:42.684Z,2.00
2019-03-09T02:07:12.893Z,1.70
2019-03-09T02:09:42.083Z,2.07
2019-03-09T02:12:12.598Z,2.30
2019-03-09T02:14:42.535Z,2.10
2019-03-09T02:17:11.991Z,2.10
2019-03-09T02:19:41.436Z,1.80
2019-03-09T02:22:10.987Z,1.73
2019-03-09T02:24:40.157Z,1.97
2019-03-09T02:27:09.864Z,2.07
2019-03-09T02:29:40.681Z,1.90
2019-03-09T02:32:11.015Z,2.00
2019-03-09T02:34:41.274Z,1.67
2019-03-09T02:37:11.334Z,1.90
2019-03-09T02:39:47.849Z,1.93
2019-03-09T02:42:17.029Z,2.27
2019-03-09T02:44:46.743Z,2.10
2019-03-09T02:47:16.504Z,2.00
2019-03-09T02:49:45.940Z,1.80
2019-03-09T02:52:15.393Z,2.07
2019-03-09T02:54:44.856Z,2.03
2019-03-09T02:57:18.816Z,1.90
2019-03-09T02:59:47.967Z,1.90
2019-03-09T03:02:26.659Z,2.10
2019-03-09T03:04:56.069Z,2.10
2019-03-09T03:07:26.433Z,1.77
2019-03-09T03:09:58.733Z,2.17
2019-03-09T03:12:31.473Z,2.03
2019-03-09T03:15:00.636Z,2.13
2019-03-09T03:17:30.088Z,2.33
2019-03-09T03:19:59.246Z,2.00
2019-03-09T03:22:28.799Z,2.60
2019-03-09T03:24:58.533Z,2.40
2019-03-09T03:27:28.520Z,1.97
2019-03-09T03:29:58.230Z,2.20
2019-03-09T03:32:33.155Z,2.17
2019-03-09T03:35:03.145Z,2.40
2019-03-09T03:37:32.350Z,1.80
2019-03-09T03:40:01.618Z,2.13
2019-03-09T03:42:30.808Z,2.13
2019-03-09T03:44:59.959Z,2.20
2019-03-09T03:47:31.015Z,2.00
2019-03-09T03:50:00.387Z,2.17
2019-03-09T03:52:30.182Z,2.17
2019-03-09T03:55:00.546Z,2.37
2019-03-09T03:57:29.671Z,2.20
2019-03-09T03:59:59.301Z,2.53
2019-03-09T04:02:28.892Z,2.50
2019-03-09T04:04:58.338Z,2.37
2019-03-09T04:07:27.515Z,3.00
2019-03-09T04:09:56.960Z,2.90
2019-03-09T04:12:26.167Z,1.90
2019-03-09T04:14:55.349Z,2.53
2019-03-09T04:17:24.535Z,2.60
2019-03-09T04:19:53.711Z,2.50
2019-03-09T04:22:23.297Z,2.23
2019-03-09T04:24:53.079Z,2.73
2019-03-09T04:27:22.225Z,2.70
2019-03-09T04:29:51.395Z,2.70
2019-03-09T04:32:20.568Z,2.87
2019-03-09T04:34:50.099Z,3.10
2019-03-09T04:37:19.296Z,2.80
2019-03-09T04:39:48.454Z,3.07
2019-03-09T04:42:17.901Z,2.73
2019-03-09T04:44:48.328Z,2.30
2019-03-09T04:47:17.516Z,2.27
2019-03-09T04:49:46.979Z,2.10
2019-03-09T04:52:16.722Z,1.73
2019-03-09T04:54:45.903Z,2.30
2019-03-09T04:57:15.080Z,2.10
2019-03-09T04:59:44.553Z,2.20
2019-03-09T05:02:14.009Z,2.00
2019-03-09T05:04:56.554Z,1.83
2019-03-09T05:07:52.214Z,1.67
2019-03-09T05:10:40.956Z,1.47
2019-03-09T05:13:13.906Z,1.50
2019-03-09T05:15:44.567Z,1.90
2019-03-09T05:18:14.940Z,1.50
2019-03-09T05:20:44.660Z,1.60
2019-03-09T05:23:14.195Z,1.60
2019-03-09T05:25:45.417Z,1.63
2019-03-09T05:28:15.383Z,1.63
2019-03-09T05:30:45.981Z,1.60
2019-03-09T05:33:15.415Z,1.33
2019-03-09T05:35:44.626Z,1.37
2019-03-09T05:38:15.911Z,1.30
2019-03-09T05:40:45.448Z,1.00
2019-03-09T05:43:14.588Z,1.27
2019-03-09T05:45:44.101Z,1.13
2019-03-09T05:48:13.539Z,1.20
2019-03-09T05:50:43.519Z,1.47
2019-03-09T05:53:15.403Z,1.13
2019-03-09T05:55:47.524Z,1.00
2019-03-09T05:58:16.975Z,1.00
2019-03-09T06:00:47.920Z,1.27
2019-03-09T06:03:17.877Z,1.00
2019-03-09T06:05:52.823Z,1.10
2019-03-09T06:08:22.676Z,1.03
2019-03-09T06:10:53.499Z,1.00
2019-03-09T06:13:22.655Z,1.07
2019-03-09T06:15:51.956Z,0.90
2019-03-09T06:18:21.248Z,0.70
2019-03-09T06:20:50.531Z,0.80
2019-03-09T06:23:21.130Z,0.67
2019-03-09T06:25:50.320Z,0.70
2019-03-09T06:28:19.885Z,0.60
2019-03-09T06:30:51.506Z,0.70
2019-03-09T06:33:42.083Z,0.70
2019-03-09T06:36:41.386Z,0.70
2019-03-09T06:39:18.508Z,0.50
2019-03-09T06:42:10.882Z,0.70
2019-03-09T06:44:40.064Z,0.60
2019-03-09T06:47:09.539Z,0.40
2019-03-09T06:49:38.695Z,0.43
2019-03-09T06:52:07.885Z,0.70
2019-03-09T06:54:37.338Z,0.60
2019-03-09T06:57:14.091Z,0.60
2019-03-09T06:59:43.200Z,1.43
2019-03-09T07:02:17.798Z,0.60
2019-03-09T07:04:48.722Z,0.40
2019-03-09T07:07:24.186Z,0.53
2019-03-09T07:09:53.900Z,0.47
2019-03-09T07:12:28.174Z,0.60
2019-03-09T07:15:18.778Z,0.60
2019-03-09T07:17:48.741Z,0.80
2019-03-09T07:20:18.156Z,0.57
2019-03-09T07:22:47.926Z,0.60
2019-03-09T07:25:17.085Z,0.40
2019-03-09T07:27:56.158Z,0.50
2019-03-09T07:30:25.732Z,0.60
2019-03-09T07:32:54.938Z,0.50
2019-03-09T07:35:24.116Z,0.40
2019-03-09T07:37:53.338Z,0.60
2019-03-09T07:40:22.506Z,0.60
2019-03-09T07:42:55.600Z,0.70
2019-03-09T07:45:24.771Z,0.50
2019-03-09T07:47:53.957Z,0.50
2019-03-09T07:50:23.436Z,0.60
2019-03-09T07:52:54.929Z,2.90
2019-03-09T07:55:27.122Z,2.43
2019-03-09T07:58:04.631Z,4.87
2019-03-09T08:00:34.049Z,4.60
2019-03-09T08:03:04.314Z,3.17
2019-03-09T08:05:33.580Z,3.27
2019-03-09T08:08:03.019Z,3.53
2019-03-09T08:10:33.255Z,3.30
2019-03-09T08:13:03.485Z,1.50
2019-03-09T08:15:34.974Z,4.00
2019-03-09T08:18:04.131Z,2.80
2019-03-09T08:20:34.161Z,5.30
2019-03-09T08:23:03.602Z,0.87
2019-03-09T08:25:35.488Z,4.30
2019-03-09T08:28:06.755Z,1.50
2019-03-09T08:30:36.785Z,1.00
2019-03-09T08:33:08.400Z,3.20
2019-03-09T08:35:40.557Z,4.43
2019-03-09T08:38:10.836Z,0.60
2019-03-09T08:40:42.843Z,8.40
2019-03-09T08:43:14.048Z,4.53
2019-03-09T08:45:43.507Z,3.47
2019-03-09T08:48:13.801Z,0.90
2019-03-09T08:50:43.480Z,2.77
2019-03-09T08:53:13.173Z,3.00
2019-03-09T08:55:43.489Z,0.67
2019-03-09T08:58:13.514Z,4.37
2019-03-09T09:00:45.794Z,1.17
2019-03-09T09:03:15.510Z,1.10
2019-03-09T09:05:47.507Z,3.70
2019-03-09T09:08:16.988Z,1.17
2019-03-09T09:10:47.183Z,1.60
2019-03-09T09:13:16.986Z,1.10
2019-03-09T09:15:46.146Z,2.60
2019-03-09T09:18:15.605Z,0.90
2019-03-09T09:20:46.135Z,3.47
2019-03-09T09:23:16.122Z,7.50
2019-03-09T09:25:45.622Z,0.70
2019-03-09T09:28:16.958Z,1.20
2019-03-09T09:30:47.012Z,0.90
2019-03-09T09:33:20.365Z,1.70
2019-03-09T09:35:50.669Z,1.20
2019-03-09T09:38:22.220Z,0.77
2019-03-09T09:40:53.964Z,0.87
2019-03-09T09:43:23.718Z,1.20
2019-03-09T09:45:53.678Z,0.73
2019-03-09T09:48:24.846Z,0.77
2019-03-09T09:50:54.320Z,0.77
2019-03-09T09:53:23.734Z,3.67
2019-03-09T09:55:54.362Z,0.97
2019-03-09T09:58:23.549Z,1.00
2019-03-09T10:00:54.386Z,1.40
2019-03-09T10:03:26.292Z,0.90
2019-03-09T10:05:55.744Z,0.90
2019-03-09T10:08:28.325Z,1.00
2019-03-09T10:10:58.337Z,1.30
2019-03-09T10:13:32.837Z,1.40
2019-03-09T10:16:02.328Z,1.10
2019-03-09T10:18:31.514Z,1.70
2019-03-09T10:21:00.697Z,1.10
2019-03-09T10:23:30.150Z,0.90
2019-03-09T10:26:00.642Z,0.90
2019-03-09T10:28:29.849Z,1.90
2019-03-09T10:30:59.566Z,1.03
2019-03-09T10:33:29.225Z,0.90
2019-03-09T10:35:58.967Z,1.00
2019-03-09T10:38:28.458Z,0.70
2019-03-09T10:40:57.851Z,1.17
2019-03-09T10:43:27.456Z,1.07
2019-03-09T10:45:59.263Z,1.30
2019-03-09T10:48:29.555Z,0.97
2019-03-09T10:51:03.051Z,3.10
2019-03-09T10:53:32.315Z,1.20
2019-03-09T10:56:01.526Z,1.17
2019-03-09T10:58:30.697Z,0.90
2019-03-09T11:01:01.378Z,1.80
2019-03-09T11:03:30.546Z,1.37
2019-03-09T11:05:59.725Z,1.17
2019-03-09T11:08:29.154Z,1.20
2019-03-09T11:11:00.352Z,1.00
2019-03-09T11:13:29.511Z,0.90
2019-03-09T11:15:58.802Z,1.30
2019-03-09T11:18:27.979Z,1.27
2019-03-09T11:20:57.426Z,1.10
2019-03-09T11:23:26.634Z,1.17
2019-03-09T11:25:55.839Z,0.90
2019-03-09T11:28:25.602Z,1.00
2019-03-09T11:30:54.803Z,0.97
2019-03-09T11:33:24.239Z,0.80
2019-03-09T11:35:53.586Z,0.80
2019-03-09T11:38:26.092Z,1.17
2019-03-09T11:40:59.707Z,0.70
2019-03-09T11:43:28.103Z,0.90
2019-03-09T11:45:58.356Z,0.80
2019-03-09T11:48:30.014Z,1.20
2019-03-09T11:51:01.218Z,0.80
2019-03-09T11:53:30.397Z,1.20
2019-03-09T11:56:01.152Z,1.10
2019-03-09T11:58:31.731Z,0.93
2019-03-09T12:01:00.914Z,1.20
2019-03-09T12:03:30.251Z,1.30
2019-03-09T12:06:00.256Z,1.00
2019-03-09T12:08:30.008Z,1.10
2019-03-09T12:11:00.603Z,1.10
2019-03-09T12:13:29.785Z,1.13
2019-03-09T12:15:59.450Z,1.00
2019-03-09T12:18:28.916Z,0.90
2019-03-09T12:20:58.081Z,0.90
2019-03-09T12:23:27.461Z,1.10
2019-03-09T12:25:57.635Z,0.97
2019-03-09T12:28:29.333Z,1.20
2019-03-09T12:30:59.956Z,1.10
2019-03-09T12:33:30.262Z,1.20
2019-03-09T12:36:00.149Z,1.00
2019-03-09T12:38:29.864Z,1.10
2019-03-09T12:40:59.542Z,1.30
2019-03-09T12:43:31.044Z,1.37
2019-03-09T12:46:01.383Z,1.10
2019-03-09T12:48:34.842Z,1.10
2019-03-09T12:51:07.655Z,1.40
2019-03-09T12:53:37.211Z,1.20
2019-03-09T12:56:06.411Z,1.10
2019-03-09T12:58:37.390Z,1.10
2019-03-09T13:01:06.919Z,1.13
2019-03-09T13:03:40.198Z,0.90
2019-03-09T13:06:11.504Z,1.10
2019-03-09T13:08:41.999Z,0.90
2019-03-09T13:11:14.248Z,1.00
2019-03-09T13:13:45.894Z,1.00
2019-03-09T13:16:20.490Z,0.80
2019-03-09T13:18:52.064Z,0.90
2019-03-09T13:21:23.181Z,1.00
2019-03-09T13:23:56.290Z,0.90
2019-03-09T13:26:26.449Z,1.00
2019-03-09T13:28:55.939Z,1.10
2019-03-09T13:31:25.907Z,0.90
2019-03-09T13:33:55.684Z,0.90
2019-03-09T13:36:25.794Z,0.90
2019-03-09T13:38:55.553Z,1.33
2019-03-09T13:41:25.496Z,0.80
2019-03-09T13:43:59.645Z,1.00
2019-03-09T13:46:29.363Z,0.60
2019-03-09T13:48:59.414Z,1.73
2019-03-09T13:51:28.639Z,0.80
2019-03-09T13:53:58.022Z,1.57
2019-03-09T13:56:28.500Z,2.47
2019-03-09T13:58:57.985Z,0.90
2019-03-09T14:01:28.047Z,1.07
2019-03-09T14:04:00.672Z,0.70
2019-03-09T14:06:42.334Z,0.70
2019-03-09T14:09:14.642Z,0.80
2019-03-09T14:11:43.857Z,0.73
2019-03-09T14:14:13.765Z,0.70
2019-03-09T14:16:43.997Z,0.80
2019-03-09T14:19:14.575Z,0.70
2019-03-09T14:21:46.015Z,0.83
2019-03-09T14:24:18.376Z,0.50
2019-03-09T14:26:53.287Z,0.60
2019-03-09T14:29:25.121Z,0.80
2019-03-09T14:31:55.325Z,0.63
2019-03-09T14:34:25.018Z,0.60
2019-03-09T14:36:54.389Z,0.90
2019-03-09T14:39:24.669Z,0.70
2019-03-09T14:41:54.805Z,0.70
2019-03-09T14:44:25.363Z,1.23
2019-03-09T14:46:59.255Z,0.77
2019-03-09T14:49:29.111Z,1.20
2019-03-09T14:51:59.195Z,0.87
2019-03-09T14:54:31.484Z,0.90
2019-03-09T14:57:04.368Z,1.20
2019-03-09T14:59:35.113Z,0.70
2019-03-09T15:02:05.103Z,0.80
2019-03-09T15:04:37.822Z,1.00
2019-03-09T15:07:14.051Z,0.80
2019-03-09T15:09:46.016Z,0.90
2019-03-09T15:12:15.233Z,0.83
2019-03-09T15:14:44.872Z,0.90
2019-03-09T15:17:14.068Z,0.63
2019-03-09T15:19:43.242Z,0.97
2019-03-09T15:22:12.707Z,0.70
2019-03-09T15:24:42.213Z,0.80
2019-03-09T15:27:13.173Z,0.83
2019-03-09T15:29:42.906Z,1.07
2019-03-09T15:32:15.537Z,0.80
2019-03-09T15:34:44.832Z,1.17
2019-03-09T15:37:14.314Z,1.20
2019-03-09T15:39:44.425Z,0.83
2019-03-09T15:42:13.896Z,0.83
2019-03-09T15:44:43.664Z,1.00
2019-03-09T15:47:13.767Z,1.03
2019-03-09T15:49:43.351Z,0.80
2019-03-09T15:52:12.527Z,1.10
2019-03-09T15:54:41.940Z,1.10
2019-03-09T15:57:11.596Z,4.10
2019-03-09T15:59:41.805Z,1.27
2019-03-09T16:02:13.300Z,1.20
2019-03-09T16:04:43.580Z,1.70
2019-03-09T16:07:12.764Z,1.70
2019-03-09T16:09:46.222Z,2.00
2019-03-09T16:12:15.415Z,1.80
2019-03-09T16:14:44.932Z,1.70
2019-03-09T16:17:14.208Z,1.80
2019-03-09T16:19:43.705Z,1.90
2019-03-09T16:22:13.119Z,2.07
2019-03-09T16:24:43.096Z,2.40
2019-03-09T16:27:13.891Z,1.67
2019-03-09T16:29:44.235Z,1.70
2019-03-09T16:32:13.413Z,1.90
2019-03-09T16:34:43.949Z,2.40
2019-03-09T16:37:13.568Z,2.23
2019-03-09T16:39:42.820Z,2.37
2019-03-09T16:42:12.014Z,2.10
2019-03-09T16:44:41.202Z,2.03
2019-03-09T16:47:11.187Z,2.30
2019-03-09T16:49:40.548Z,2.30
2019-03-09T16:52:11.142Z,3.00
2019-03-09T16:54:40.985Z,2.50
2019-03-09T16:57:11.646Z,2.53
2019-03-09T16:59:44.240Z,2.40
2019-03-09T17:02:12.938Z,2.67
2019-03-09T17:04:42.127Z,2.27
2019-03-09T17:07:11.354Z,2.50
2019-03-09T17:09:41.996Z,2.13
2019-03-09T17:12:11.201Z,2.10
2019-03-09T17:14:40.727Z,2.10
2019-03-09T17:17:09.989Z,2.63
2019-03-09T17:19:41.056Z,2.90
2019-03-09T17:22:10.254Z,3.07
2019-03-09T17:24:39.413Z,2.37
2019-03-09T17:27:09.424Z,2.27
2019-03-09T17:29:39.577Z,2.40
2019-03-09T17:32:08.787Z,2.57
2019-03-09T17:34:40.121Z,2.23
2019-03-09T17:37:09.762Z,2.77
2019-03-09T17:39:39.183Z,2.03
2019-03-09T17:42:08.367Z,2.87
2019-03-09T17:44:37.546Z,2.10
2019-03-09T17:47:07.041Z,2.53
2019-03-09T17:49:37.662Z,2.30
2019-03-09T17:52:06.848Z,2.60
2019-03-09T17:54:36.034Z,2.27
2019-03-09T17:57:05.684Z,2.57
2019-03-09T17:59:35.962Z,2.57
2019-03-09T18:02:06.551Z,2.43
2019-03-09T18:04:36.374Z,2.40
2019-03-09T18:07:25.195Z,2.20
2019-03-09T18:09:57.553Z,2.87
2019-03-09T18:12:26.996Z,2.57
2019-03-09T18:14:56.578Z,2.60
2019-03-09T18:17:25.773Z,2.27
2019-03-09T18:22:46.682Z,2.63
2019-03-09T18:25:15.875Z,2.37
2019-03-09T18:27:45.066Z,2.50
2019-03-09T18:30:16.203Z,2.17
2019-03-09T18:32:47.990Z,2.30
2019-03-09T18:35:18.224Z,2.30
2019-03-09T18:37:48.796Z,1.87
2019-03-09T18:40:18.201Z,2.77
2019-03-09T18:42:47.393Z,2.20
2019-03-09T18:45:18.003Z,2.00
2019-03-09T18:47:48.001Z,2.20
2019-03-09T18:50:18.710Z,1.93
2019-03-09T18:52:48.257Z,1.77
2019-03-09T18:55:19.743Z,2.47
2019-03-09T18:57:49.076Z,2.07
2019-03-09T19:00:18.722Z,2.40
2019-03-09T19:02:48.868Z,2.40
2019-03-09T19:05:18.031Z,2.50
2019-03-09T19:07:47.728Z,2.37
2019-03-09T19:10:17.273Z,2.10
2019-03-09T19:12:46.491Z,1.80
2019-03-09T19:15:15.913Z,2.40
2019-03-09T19:17:45.064Z,2.67
2019-03-09T19:20:14.749Z,1.90
2019-03-09T19:22:44.163Z,2.30
2019-03-09T19:25:14.680Z,1.87
2019-03-09T19:27:44.854Z,1.87
2019-03-09T19:30:15.288Z,2.10
2019-03-09T19:32:45.147Z,2.00
2019-03-09T19:35:14.448Z,2.00
2019-03-09T19:37:43.710Z,2.00
2019-03-09T19:40:13.926Z,1.50
2019-03-09T19:42:43.209Z,2.13
2019-03-09T19:45:13.311Z,2.03
2019-03-09T19:47:42.591Z,2.07
2019-03-09T19:50:13.745Z,1.87
2019-03-09T19:52:43.012Z,2.47
2019-03-09T19:55:12.578Z,1.97
2019-03-09T19:57:52.089Z,2.07
2019-03-09T20:00:21.281Z,2.13
2019-03-09T20:02:50.433Z,1.87
2019-03-09T20:05:20.053Z,2.07
2019-03-09T20:07:49.947Z,2.30
2019-03-09T20:10:22.472Z,1.90
2019-03-09T20:12:52.244Z,2.00
2019-03-09T20:15:25.535Z,2.40
2019-03-09T20:18:01.080Z,1.93
2019-03-09T20:20:30.474Z,2.23
2019-03-09T20:22:59.826Z,2.33
2019-03-09T20:25:30.426Z,2.33
2019-03-09T20:27:59.623Z,1.87
2019-03-09T20:30:33.478Z,2.23
2019-03-09T20:33:03.055Z,2.10
2019-03-09T20:35:36.530Z,2.33
2019-03-09T20:38:05.760Z,1.90
2019-03-09T20:40:35.863Z,2.20
2019-03-09T20:43:05.546Z,2.07
2019-03-09T20:45:35.237Z,2.20
2019-03-09T20:48:08.454Z,2.40
2019-03-09T20:50:41.424Z,2.50
2019-03-09T20:53:11.300Z,11.47
2019-03-09T20:55:40.866Z,3.90
2019-03-09T20:58:10.935Z,3.13
2019-03-09T21:00:40.381Z,3.23
2019-03-09T21:03:11.022Z,2.90
2019-03-09T21:05:40.380Z,2.70
2019-03-09T21:08:11.512Z,2.77
2019-03-09T21:11:04.161Z,2.43
2019-03-09T21:13:33.530Z,2.43
2019-03-09T21:16:03.119Z,2.57
2019-03-09T21:18:34.396Z,6.90
2019-03-09T21:21:17.331Z,3.40
2019-03-09T21:23:46.884Z,3.63
2019-03-09T21:26:17.197Z,5.23
2019-03-09T21:28:47.986Z,2.90
2019-03-09T21:31:17.773Z,2.50
2019-03-09T21:33:47.264Z,3.30
2019-03-09T21:36:16.461Z,3.00
2019-03-09T21:38:46.018Z,3.40
2019-03-09T21:41:15.964Z,4.17
2019-03-09T21:43:45.191Z,3.30
2019-03-09T21:46:14.634Z,3.80
2019-03-09T21:48:46.980Z,3.27
2019-03-09T21:51:16.421Z,3.50
2019-03-09T21:53:45.640Z,3.53
2019-03-09T21:56:14.810Z,3.33
2019-03-09T21:58:44.465Z,3.17
2019-03-09T22:01:14.678Z,3.87
2019-03-09T22:03:45.060Z,3.97
2019-03-09T22:06:14.774Z,4.40
2019-03-09T22:08:45.215Z,3.83
2019-03-09T22:11:14.473Z,3.90
2019-03-09T22:13:43.774Z,4.37
2019-03-09T22:16:13.759Z,4.33
2019-03-09T22:18:42.964Z,4.70
2019-03-09T22:21:12.523Z,3.93
2019-03-09T22:23:44.357Z,4.57
2019-03-09T22:26:13.919Z,4.77
2019-03-09T22:28:43.742Z,4.70
2019-03-09T22:31:13.196Z,4.47
2019-03-09T22:33:43.396Z,4.00
2019-03-09T22:36:12.909Z,4.03
2019-03-09T22:38:43.193Z,4.03
2019-03-09T22:41:13.661Z,4.37
2019-03-09T22:43:43.167Z,4.10
2019-03-09T22:46:13.161Z,3.77
2019-03-09T22:48:42.596Z,3.73
2019-03-09T22:51:15.451Z,3.97
2019-03-09T22:53:45.487Z,3.77
2019-03-09T22:56:14.681Z,3.43
2019-03-09T22:58:44.204Z,3.90
2019-03-09T23:01:13.467Z,3.67
2019-03-09T23:03:42.628Z,3.57
2019-03-09T23:06:12.894Z,3.23
2019-03-09T23:08:43.255Z,3.87
2019-03-09T23:11:17.050Z,3.63
2019-03-09T23:13:46.981Z,3.10
2019-03-09T23:16:16.498Z,3.13
2019-03-09T23:18:46.250Z,3.13
2019-03-09T23:21:15.727Z,2.83
2019-03-09T23:23:44.978Z,2.60
2019-03-09T23:26:15.035Z,3.57
2019-03-09T23:28:48.671Z,3.30
2019-03-09T23:31:18.143Z,3.13
2019-03-09T23:33:47.686Z,2.57
2019-03-09T23:36:17.438Z,2.87
2019-03-09T23:38:46.634Z,2.80
2019-03-09T23:41:16.606Z,2.90
2019-03-09T23:43:47.230Z,3.03
2019-03-09T23:46:16.418Z,3.23
2019-03-09T23:48:46.676Z,2.87
2019-03-09T23:51:17.667Z,3.80
2019-03-09T23:53:47.060Z,3.70
2019-03-09T23:56:16.222Z,2.97
2019-03-09T23:58:45.758Z,3.33
